createdAt,value
2022-08-28T00:01:57.402Z,21.90
2022-08-28T00:04:24.214Z,21.90
2022-08-28T00:06:51.028Z,21.90
2022-08-28T00:09:17.966Z,21.90
2022-08-28T00:11:44.750Z,21.90
2022-08-28T00:14:11.530Z,21.80
2022-08-28T00:16:38.662Z,21.70
2022-08-28T00:19:05.834Z,21.60
2022-08-28T00:21:33.329Z,21.60
2022-08-28T00:24:00.477Z,21.60
2022-08-28T00:26:45.800Z,21.60
2022-08-28T00:29:12.761Z,21.60
2022-08-28T00:31:39.755Z,21.50
2022-08-28T00:34:07.152Z,21.50
2022-08-28T00:36:34.101Z,21.60
2022-08-28T00:39:00.927Z,21.60
2022-08-28T00:41:28.758Z,21.60
2022-08-28T00:44:10.894Z,21.60
2022-08-28T00:46:39.076Z,21.60
2022-08-28T00:49:06.340Z,21.60
2022-08-28T00:51:51.444Z,21.60
2022-08-28T00:54:19.476Z,21.60
2022-08-28T00:56:47.606Z,21.60
2022-08-28T00:59:15.681Z,21.60
2022-08-28T01:01:43.371Z,21.60
2022-08-28T01:04:12.453Z,21.50
2022-08-28T01:06:39.482Z,21.50
2022-08-28T01:09:06.563Z,21.40
2022-08-28T01:11:33.343Z,21.30
2022-08-28T01:14:01.926Z,21.20
2022-08-28T01:16:33.861Z,21.20
2022-08-28T01:19:01.424Z,21.30
2022-08-28T01:21:29.414Z,21.30
2022-08-28T01:24:03.330Z,21.30
2022-08-28T01:26:30.115Z,21.20
2022-08-28T01:28:58.513Z,21.20
2022-08-28T01:31:26.634Z,21.20
2022-08-28T01:33:53.512Z,21.10
2022-08-28T01:36:20.417Z,21.10
2022-08-28T01:38:49.087Z,21.10
2022-08-28T01:41:16.677Z,21.00
2022-08-28T01:43:43.486Z,21.10
2022-08-28T01:46:10.641Z,21.00
2022-08-28T01:48:38.023Z,21.00
2022-08-28T01:51:05.177Z,21.00
2022-08-28T01:53:32.482Z,21.00
2022-08-28T01:56:00.190Z,21.10
2022-08-28T01:58:27.153Z,21.10
2022-08-28T02:00:55.836Z,21.10
2022-08-28T02:03:22.944Z,21.10
2022-08-28T02:05:49.875Z,21.00
2022-08-28T02:08:16.702Z,21.00
2022-08-28T02:10:43.857Z,20.90
2022-08-28T02:13:11.697Z,20.90
2022-08-28T02:15:39.416Z,20.90
2022-08-28T02:18:06.282Z,20.80
2022-08-28T02:20:33.953Z,20.90
2022-08-28T02:23:00.816Z,20.80
2022-08-28T02:25:27.792Z,20.80
2022-08-28T02:27:54.898Z,20.80
2022-08-28T02:30:21.683Z,20.70
2022-08-28T02:32:48.479Z,20.70
2022-08-28T02:35:15.727Z,20.70
2022-08-28T02:37:44.304Z,20.70
2022-08-28T02:40:14.373Z,20.70
2022-08-28T02:42:42.034Z,20.80
2022-08-28T02:45:10.804Z,20.70
2022-08-28T02:47:38.275Z,20.80
2022-08-28T02:50:05.345Z,20.80
2022-08-28T02:52:32.098Z,20.70
2022-08-28T02:54:58.874Z,20.70
2022-08-28T02:57:26.556Z,20.70
2022-08-28T02:59:53.430Z,20.70
2022-08-28T03:02:20.196Z,20.60
2022-08-28T03:04:46.963Z,20.60
2022-08-28T03:07:13.822Z,20.60
2022-08-28T03:09:41.661Z,20.70
2022-08-28T03:12:08.533Z,20.70
2022-08-28T03:14:35.865Z,20.70
2022-08-28T03:17:02.786Z,20.70
2022-08-28T03:19:29.611Z,20.70
2022-08-28T03:21:56.363Z,20.60
2022-08-28T03:24:23.167Z,20.60
2022-08-28T03:26:49.917Z,20.60
2022-08-28T03:29:16.790Z,20.60
2022-08-28T03:31:43.570Z,20.50
2022-08-28T03:34:10.395Z,20.50
2022-08-28T03:36:37.167Z,20.50
2022-08-28T03:39:05.062Z,20.50
2022-08-28T03:41:31.851Z,20.40
2022-08-28T03:43:59.722Z,20.40
2022-08-28T03:46:26.856Z,20.40
2022-08-28T03:48:53.851Z,20.40
2022-08-28T03:51:25.474Z,20.40
2022-08-28T03:53:57.301Z,20.40
2022-08-28T03:56:24.661Z,20.30
2022-08-28T03:58:52.736Z,20.30
2022-08-28T04:01:19.728Z,20.30
2022-08-28T04:03:46.682Z,20.30
2022-08-28T04:06:13.541Z,20.30
2022-08-28T04:08:40.426Z,20.30
2022-08-28T04:11:07.226Z,20.20
2022-08-28T04:13:34.102Z,20.20
2022-08-28T04:16:10.682Z,20.10
2022-08-28T04:18:41.138Z,20.10
2022-08-28T04:21:10.024Z,20.10
2022-08-28T04:23:36.985Z,20.20
2022-08-28T04:26:10.270Z,20.30
2022-08-28T04:28:37.074Z,20.30
2022-08-28T04:31:03.928Z,20.40
2022-08-28T04:33:30.807Z,20.40
2022-08-28T04:35:57.556Z,20.50
2022-08-28T04:38:24.390Z,20.50
2022-08-28T04:40:51.174Z,20.50
2022-08-28T04:43:17.937Z,20.50
2022-08-28T04:45:44.948Z,20.60
2022-08-28T04:48:13.894Z,20.70
2022-08-28T04:50:41.475Z,20.90
2022-08-28T04:53:08.308Z,21.10
2022-08-28T04:55:54.369Z,21.40
2022-08-28T04:58:23.899Z,21.60
2022-08-28T05:00:51.401Z,22.30
2022-08-28T05:03:18.304Z,23.30
2022-08-28T05:05:45.588Z,24.30
2022-08-28T05:08:12.644Z,25.20
2022-08-28T05:10:40.370Z,26.00
2022-08-28T05:13:08.509Z,26.70
2022-08-28T05:15:39.043Z,27.40
2022-08-28T05:18:06.002Z,27.80
2022-08-28T05:20:39.045Z,28.30
2022-08-28T05:23:06.344Z,28.50
2022-08-28T05:25:36.680Z,28.80
2022-08-28T05:28:03.582Z,29.20
2022-08-28T05:30:30.474Z,29.60
2022-08-28T05:32:57.335Z,30.00
2022-08-28T05:35:24.977Z,30.50
2022-08-28T05:37:52.730Z,30.70
2022-08-28T05:40:21.548Z,30.60
2022-08-28T05:42:48.955Z,31.00
2022-08-28T05:45:15.801Z,31.90
2022-08-28T05:47:43.711Z,32.60
2022-08-28T05:50:10.661Z,33.20
2022-08-28T05:52:37.425Z,33.70
2022-08-28T05:55:05.412Z,33.90
2022-08-28T05:57:32.188Z,34.20
2022-08-28T05:59:59.001Z,34.70
2022-08-28T06:02:27.470Z,35.10
2022-08-28T06:04:54.657Z,35.10
2022-08-28T06:07:21.462Z,35.30
2022-08-28T06:09:48.484Z,35.50
2022-08-28T06:12:15.796Z,35.80
2022-08-28T06:14:42.563Z,35.70
2022-08-28T06:17:11.667Z,35.40
2022-08-28T06:19:41.579Z,35.20
2022-08-28T06:22:09.753Z,34.70
2022-08-28T06:24:36.581Z,34.60
2022-08-28T06:27:07.021Z,34.70
2022-08-28T06:29:33.862Z,33.90
2022-08-28T06:32:01.456Z,32.90
2022-08-28T06:34:28.733Z,31.90
2022-08-28T06:36:55.499Z,30.90
2022-08-28T06:39:22.402Z,30.10
2022-08-28T06:41:49.249Z,29.40
2022-08-28T06:44:19.794Z,28.90
2022-08-28T06:46:47.137Z,28.50
2022-08-28T06:49:14.467Z,28.00
2022-08-28T06:51:41.790Z,27.70
2022-08-28T06:54:09.067Z,27.50
2022-08-28T06:56:36.024Z,27.50
2022-08-28T06:59:02.857Z,27.30
2022-08-28T07:01:30.643Z,27.20
2022-08-28T07:03:59.545Z,26.90
2022-08-28T07:06:26.853Z,26.80
2022-08-28T07:08:53.707Z,26.70
2022-08-28T07:11:26.329Z,26.40
2022-08-28T07:13:53.574Z,26.20
2022-08-28T07:16:20.855Z,26.00
2022-08-28T07:18:47.679Z,26.00
2022-08-28T07:21:14.525Z,26.10
2022-08-28T07:23:42.239Z,26.10
2022-08-28T07:26:10.159Z,26.10
2022-08-28T07:28:37.709Z,26.10
2022-08-28T07:31:05.625Z,26.10
2022-08-28T07:33:32.741Z,26.20
2022-08-28T07:35:59.668Z,26.20
2022-08-28T07:38:26.822Z,26.00
2022-08-28T07:40:54.345Z,25.90
2022-08-28T07:43:39.781Z,25.80
2022-08-28T07:46:07.304Z,25.70
2022-08-28T07:48:35.488Z,25.60
2022-08-28T07:51:02.814Z,25.70
2022-08-28T07:53:33.216Z,25.60
2022-08-28T07:56:02.981Z,25.60
2022-08-28T07:58:29.950Z,25.80
2022-08-28T08:00:57.391Z,25.90
2022-08-28T08:03:25.713Z,25.90
2022-08-28T08:05:53.556Z,26.00
2022-08-28T08:08:20.377Z,26.10
2022-08-28T08:10:56.097Z,26.10
2022-08-28T08:13:23.306Z,26.10
2022-08-28T08:15:50.458Z,26.10
2022-08-28T08:18:17.310Z,26.10
2022-08-28T08:20:47.782Z,26.20
2022-08-28T08:23:15.512Z,26.20
2022-08-28T08:25:42.290Z,26.30
2022-08-28T08:28:09.468Z,26.30
2022-08-28T08:30:36.477Z,26.20
2022-08-28T08:33:03.276Z,26.20
2022-08-28T08:35:30.059Z,26.20
2022-08-28T08:38:00.656Z,26.10
2022-08-28T08:40:29.551Z,26.00
2022-08-28T08:42:57.221Z,26.00
2022-08-28T08:45:26.650Z,26.00
2022-08-28T08:47:54.045Z,26.00
2022-08-28T08:50:30.685Z,26.10
2022-08-28T08:53:09.334Z,26.10
2022-08-28T08:55:36.893Z,26.10
2022-08-28T08:58:05.291Z,26.20
2022-08-28T09:00:33.603Z,26.40
2022-08-28T09:03:12.221Z,26.50
2022-08-28T09:05:41.589Z,26.70
2022-08-28T09:08:08.772Z,26.80
2022-08-28T09:10:36.477Z,27.00
2022-08-28T09:13:05.235Z,27.10
2022-08-28T09:15:32.919Z,27.20
2022-08-28T09:18:06.727Z,27.40
2022-08-28T09:20:33.688Z,27.60
2022-08-28T09:23:00.524Z,27.80
2022-08-28T09:25:47.799Z,28.00
2022-08-28T09:28:25.084Z,28.30
2022-08-28T09:31:12.148Z,28.60
2022-08-28T09:33:40.004Z,29.00
2022-08-28T09:36:26.138Z,29.40
2022-08-28T09:39:04.068Z,30.00
2022-08-28T09:41:49.244Z,31.40
2022-08-28T09:44:16.118Z,32.70
2022-08-28T09:46:46.272Z,33.60
2022-08-28T09:49:13.573Z,33.60
2022-08-28T09:51:40.416Z,33.50
2022-08-28T09:54:36.263Z,33.20
2022-08-28T09:57:03.618Z,33.10
2022-08-28T09:59:30.473Z,33.50
2022-08-28T10:01:57.339Z,34.20
2022-08-28T10:04:36.298Z,34.80
2022-08-28T10:07:11.831Z,34.70
2022-08-28T10:09:38.968Z,34.40
2022-08-28T10:12:30.047Z,33.90
2022-08-28T10:15:17.841Z,33.90
2022-08-28T10:17:44.764Z,34.40
2022-08-28T10:20:17.580Z,35.00
2022-08-28T10:22:49.498Z,34.60
2022-08-28T10:25:22.439Z,34.10
2022-08-28T10:28:05.901Z,33.40
2022-08-28T10:30:34.035Z,32.80
2022-08-28T10:33:19.473Z,32.40
2022-08-28T10:35:58.279Z,32.40
2022-08-28T10:38:33.960Z,32.20
2022-08-28T10:41:10.704Z,32.10
2022-08-28T10:43:43.590Z,31.90
2022-08-28T10:46:14.239Z,31.70
2022-08-28T10:48:46.541Z,31.50
2022-08-28T10:51:35.362Z,31.40
2022-08-28T10:54:08.297Z,31.30
2022-08-28T10:56:36.919Z,31.30
2022-08-28T10:59:03.687Z,31.20
2022-08-28T11:01:30.611Z,31.20
2022-08-28T11:03:58.172Z,31.20
2022-08-28T11:06:27.383Z,31.10
2022-08-28T11:08:55.333Z,31.20
2022-08-28T11:12:01.828Z,31.20
2022-08-28T11:14:29.877Z,31.00
2022-08-28T11:17:03.849Z,31.00
2022-08-28T11:19:52.076Z,31.00
2022-08-28T11:22:37.889Z,30.90
2022-08-28T11:25:15.633Z,30.60
2022-08-28T11:28:02.424Z,30.50
2022-08-28T11:30:33.382Z,30.50
2022-08-28T11:33:00.996Z,30.50
2022-08-28T11:35:30.514Z,30.40
2022-08-28T11:37:57.516Z,30.20
2022-08-28T11:40:30.145Z,30.20
2022-08-28T11:43:16.165Z,30.20
2022-08-28T11:45:45.802Z,30.20
2022-08-28T11:48:22.915Z,30.20
2022-08-28T11:51:00.468Z,30.20
2022-08-28T11:53:33.941Z,30.20
2022-08-28T11:56:04.490Z,30.10
2022-08-28T11:58:34.360Z,30.20
2022-08-28T12:01:05.146Z,30.20
2022-08-28T12:03:34.035Z,30.30
2022-08-28T12:06:00.898Z,30.30
2022-08-28T12:08:48.992Z,30.30
2022-08-28T12:11:34.273Z,30.40
2022-08-28T12:14:01.125Z,30.60
2022-08-28T12:16:27.937Z,30.70
2022-08-28T12:18:54.763Z,31.00
2022-08-28T12:21:22.276Z,31.20
2022-08-28T12:23:58.093Z,31.30
2022-08-28T12:26:30.226Z,31.40
2022-08-28T12:28:57.072Z,31.40
2022-08-28T12:32:11.632Z,31.50
2022-08-28T12:34:49.845Z,31.50
2022-08-28T12:37:51.165Z,31.70
2022-08-28T12:40:23.871Z,31.70
2022-08-28T12:42:54.900Z,31.80
2022-08-28T12:45:26.367Z,31.80
2022-08-28T12:47:53.860Z,31.90
2022-08-28T12:50:34.683Z,31.80
2022-08-28T12:53:03.368Z,31.80
2022-08-28T12:55:30.481Z,31.80
2022-08-28T12:57:57.405Z,31.80
2022-08-28T13:00:25.262Z,31.70
2022-08-28T13:02:53.505Z,31.80
2022-08-28T13:05:27.118Z,31.80
2022-08-28T13:07:56.797Z,31.70
2022-08-28T13:10:30.654Z,31.80
2022-08-28T13:13:04.692Z,31.80
2022-08-28T13:15:51.132Z,31.80
2022-08-28T13:18:36.502Z,31.80
2022-08-28T13:21:13.408Z,31.70
2022-08-28T13:23:40.218Z,31.60
2022-08-28T13:26:07.163Z,31.70
2022-08-28T13:28:40.578Z,31.80
2022-08-28T13:31:09.845Z,31.90
2022-08-28T13:33:39.054Z,31.90
2022-08-28T13:36:20.748Z,31.80
2022-08-28T13:38:47.524Z,31.60
2022-08-28T13:41:14.430Z,31.50
2022-08-28T13:43:45.523Z,31.30
2022-08-28T13:46:12.415Z,31.20
2022-08-28T13:48:39.197Z,31.10
2022-08-28T13:51:07.574Z,31.10
2022-08-28T13:53:37.362Z,31.20
2022-08-28T13:56:04.242Z,31.20
2022-08-28T13:58:31.118Z,31.30
2022-08-28T14:00:57.980Z,31.30
2022-08-28T14:03:37.780Z,31.40
2022-08-28T14:06:14.366Z,31.50
2022-08-28T14:08:41.422Z,31.60
2022-08-28T14:11:08.385Z,31.60
2022-08-28T14:13:39.911Z,31.70
2022-08-28T14:16:07.290Z,31.80
2022-08-28T14:18:34.724Z,31.80
2022-08-28T14:21:03.903Z,31.80
2022-08-28T14:23:30.655Z,31.90
2022-08-28T14:25:57.703Z,31.90
2022-08-28T14:28:24.495Z,31.90
2022-08-28T14:30:51.359Z,31.90
2022-08-28T14:33:20.840Z,31.90
2022-08-28T14:35:48.829Z,31.90
2022-08-28T14:38:15.674Z,31.90
2022-08-28T14:40:42.912Z,32.00
2022-08-28T14:43:10.116Z,31.90
2022-08-28T14:45:43.885Z,31.90
2022-08-28T14:48:10.700Z,31.90
2022-08-28T14:50:44.084Z,32.00
2022-08-28T14:53:11.064Z,32.10
2022-08-28T14:55:45.782Z,32.20
2022-08-28T14:58:12.849Z,32.20
2022-08-28T15:00:43.605Z,32.30
2022-08-28T15:03:10.615Z,32.40
2022-08-28T15:05:37.520Z,32.50
2022-08-28T15:08:07.913Z,32.60
2022-08-28T15:10:34.818Z,32.70
2022-08-28T15:13:01.606Z,32.70
2022-08-28T15:15:28.425Z,32.80
2022-08-28T15:17:55.182Z,32.80
2022-08-28T15:20:21.984Z,32.80
2022-08-28T15:22:48.767Z,32.80
2022-08-28T15:25:15.521Z,32.80
2022-08-28T15:27:42.301Z,32.70
2022-08-28T15:30:09.404Z,32.70
2022-08-28T15:32:36.171Z,32.50
2022-08-28T15:35:03.004Z,32.30
2022-08-28T15:37:31.678Z,32.30
2022-08-28T15:40:17.217Z,32.20
2022-08-28T15:42:44.108Z,32.10
2022-08-28T15:45:12.200Z,32.00
2022-08-28T15:47:38.992Z,31.90
2022-08-28T15:50:06.045Z,31.80
2022-08-28T15:52:33.300Z,31.70
2022-08-28T15:55:00.374Z,31.60
2022-08-28T15:57:27.166Z,31.60
2022-08-28T15:59:54.453Z,31.40
2022-08-28T16:02:21.994Z,31.30
2022-08-28T16:04:48.929Z,31.20
2022-08-28T16:07:16.014Z,31.10
2022-08-28T16:09:42.861Z,30.80
2022-08-28T16:12:09.660Z,30.60
2022-08-28T16:14:36.448Z,30.30
2022-08-28T16:17:05.544Z,30.10
2022-08-28T16:19:37.347Z,29.90
2022-08-28T16:22:04.237Z,29.70
2022-08-28T16:24:31.010Z,29.60
2022-08-28T16:26:57.750Z,29.50
2022-08-28T16:29:24.620Z,29.20
2022-08-28T16:31:51.773Z,29.10
2022-08-28T16:34:19.615Z,28.90
2022-08-28T16:36:50.360Z,28.80
2022-08-28T16:39:17.525Z,28.70
2022-08-28T16:41:49.826Z,28.60
2022-08-28T16:44:23.063Z,28.50
2022-08-28T16:46:50.354Z,28.40
2022-08-28T16:49:17.584Z,28.40
2022-08-28T16:51:44.334Z,28.40
2022-08-28T16:54:11.103Z,28.30
2022-08-28T16:56:37.873Z,28.30
2022-08-28T16:59:10.116Z,28.20
2022-08-28T17:01:37.627Z,28.20
2022-08-28T17:04:07.585Z,28.10
2022-08-28T17:06:35.555Z,28.00
2022-08-28T17:09:02.338Z,27.90
2022-08-28T17:11:29.290Z,27.80
2022-08-28T17:13:56.505Z,27.70
2022-08-28T17:16:23.769Z,27.70
2022-08-28T17:18:52.556Z,27.60
2022-08-28T17:21:40.827Z,27.60
2022-08-28T17:24:08.167Z,27.50
2022-08-28T17:26:35.023Z,27.20
2022-08-28T17:29:02.335Z,27.00
2022-08-28T17:31:29.185Z,26.80
2022-08-28T17:33:56.061Z,26.50
2022-08-28T17:36:34.070Z,26.30
2022-08-28T17:39:04.769Z,26.10
2022-08-28T17:41:33.894Z,26.00
2022-08-28T17:44:00.993Z,25.80
2022-08-28T17:46:27.777Z,25.60
2022-08-28T17:48:56.213Z,25.50
2022-08-28T17:51:40.444Z,25.40
2022-08-28T17:54:10.388Z,25.30
2022-08-28T17:56:37.140Z,25.10
2022-08-28T17:59:04.854Z,25.00
2022-08-28T18:01:31.728Z,24.80
2022-08-28T18:03:58.600Z,24.80
2022-08-28T18:06:25.471Z,24.80
2022-08-28T18:08:52.289Z,24.80
2022-08-28T18:11:19.237Z,24.80
2022-08-28T18:13:46.571Z,24.70
2022-08-28T18:16:14.565Z,24.60
2022-08-28T18:18:41.709Z,24.50
2022-08-28T18:21:11.761Z,24.50
2022-08-28T18:23:40.043Z,24.50
2022-08-28T18:26:07.463Z,24.60
2022-08-28T18:28:34.483Z,24.60
2022-08-28T18:31:01.577Z,24.60
2022-08-28T18:33:29.854Z,24.60
2022-08-28T18:35:57.051Z,24.50
2022-08-28T18:38:25.719Z,24.50
2022-08-28T18:40:53.720Z,24.50
2022-08-28T18:43:22.577Z,24.60
2022-08-28T18:45:49.701Z,24.70
2022-08-28T18:48:16.811Z,24.70
2022-08-28T18:50:46.497Z,24.70
2022-08-28T18:53:14.329Z,24.70
2022-08-28T18:55:41.383Z,24.70
2022-08-28T18:58:08.180Z,24.70
2022-08-28T19:00:38.257Z,24.60
2022-08-28T19:03:05.374Z,24.60
2022-08-28T19:05:33.520Z,24.50
2022-08-28T19:08:00.513Z,24.40
2022-08-28T19:10:34.152Z,24.40
2022-08-28T19:13:01.639Z,24.40
2022-08-28T19:15:28.596Z,24.30
2022-08-28T19:17:55.446Z,24.30
2022-08-28T19:20:22.343Z,24.20
2022-08-28T19:22:49.209Z,24.20
2022-08-28T19:25:27.604Z,24.20
2022-08-28T19:27:56.344Z,24.10
2022-08-28T19:30:26.036Z,24.10
2022-08-28T19:32:53.375Z,24.10
2022-08-28T19:35:20.372Z,24.10
2022-08-28T19:37:50.916Z,24.10
2022-08-28T19:40:17.769Z,24.20
2022-08-28T19:42:44.724Z,24.30
2022-08-28T19:45:12.516Z,24.30
2022-08-28T19:47:40.131Z,24.40
2022-08-28T19:50:08.596Z,24.40
2022-08-28T19:52:36.526Z,24.20
2022-08-28T19:55:06.103Z,24.20
2022-08-28T19:57:33.317Z,24.20
2022-08-28T20:00:00.332Z,24.20
2022-08-28T20:02:28.622Z,24.30
2022-08-28T20:04:55.542Z,24.20
2022-08-28T20:07:22.541Z,24.30
2022-08-28T20:09:49.319Z,24.20
2022-08-28T20:12:16.165Z,24.10
2022-08-28T20:14:44.688Z,24.00
2022-08-28T20:17:11.506Z,23.90
2022-08-28T20:19:38.630Z,23.80
2022-08-28T20:22:05.444Z,23.80
2022-08-28T20:24:32.262Z,23.70
2022-08-28T20:26:59.184Z,23.80
2022-08-28T20:29:25.960Z,23.80
2022-08-28T20:31:53.003Z,23.70
2022-08-28T20:34:19.882Z,23.70
2022-08-28T20:36:46.913Z,23.80
2022-08-28T20:39:14.799Z,23.90
2022-08-28T20:41:41.708Z,23.90
2022-08-28T20:44:09.292Z,23.90
2022-08-28T20:46:40.746Z,23.80
2022-08-28T20:49:08.807Z,23.80
2022-08-28T20:51:53.917Z,23.80
2022-08-28T20:54:21.582Z,23.70
2022-08-28T20:56:48.724Z,23.60
2022-08-28T20:59:15.600Z,23.40
2022-08-28T21:01:42.385Z,23.30
2022-08-28T21:04:09.249Z,23.20
2022-08-28T21:06:36.049Z,23.20
2022-08-28T21:09:02.837Z,23.20
2022-08-28T21:11:29.671Z,23.10
2022-08-28T21:13:56.504Z,23.10
2022-08-28T21:16:23.354Z,23.10
2022-08-28T21:19:14.713Z,23.00
2022-08-28T21:21:37.091Z,23.00
2022-08-28T21:24:04.639Z,22.90
2022-08-28T21:26:31.428Z,22.80
2022-08-28T21:28:58.313Z,22.70
2022-08-28T21:31:25.440Z,22.70
2022-08-28T21:33:52.267Z,22.70
2022-08-28T21:36:19.080Z,22.70
2022-08-28T21:38:45.861Z,22.60
2022-08-28T21:41:13.504Z,22.60
2022-08-28T21:43:40.806Z,22.50
2022-08-28T21:46:07.796Z,22.50
2022-08-28T21:48:37.576Z,22.40
2022-08-28T21:51:07.911Z,22.40
2022-08-28T21:53:34.692Z,22.40
2022-08-28T21:56:01.486Z,22.30
2022-08-28T21:58:28.345Z,22.30
2022-08-28T22:00:56.841Z,22.30
2022-08-28T22:03:23.916Z,22.30
2022-08-28T22:05:50.845Z,22.30
2022-08-28T22:08:17.996Z,22.20
2022-08-28T22:10:44.983Z,22.20
2022-08-28T22:13:12.003Z,22.20
2022-08-28T22:15:40.007Z,22.20
2022-08-28T22:18:10.090Z,22.20
2022-08-28T22:20:57.231Z,22.20
2022-08-28T22:23:24.279Z,22.20
2022-08-28T22:25:51.026Z,22.20
2022-08-28T22:28:17.786Z,22.10
2022-08-28T22:30:44.627Z,21.90
2022-08-28T22:33:11.553Z,21.80
2022-08-28T22:35:38.309Z,21.70
2022-08-28T22:38:05.081Z,21.60
2022-08-28T22:40:32.654Z,21.50
2022-08-28T22:42:59.552Z,21.50
2022-08-28T22:45:26.365Z,21.60
2022-08-28T22:47:53.997Z,21.70
2022-08-28T22:50:20.782Z,21.80
2022-08-28T22:52:48.123Z,21.80
2022-08-28T22:55:15.326Z,21.90
2022-08-28T22:57:42.078Z,21.90
2022-08-28T23:00:10.950Z,22.00
2022-08-28T23:02:38.154Z,21.90
2022-08-28T23:05:05.635Z,21.90
2022-08-28T23:07:32.508Z,21.80
2022-08-28T23:09:59.294Z,21.90
2022-08-28T23:12:26.092Z,21.80
2022-08-28T23:14:52.898Z,21.80
2022-08-28T23:17:19.664Z,21.80
2022-08-28T23:19:46.831Z,21.70
2022-08-28T23:22:13.761Z,21.50
2022-08-28T23:24:40.541Z,21.40
2022-08-28T23:27:32.472Z,21.40
2022-08-28T23:29:54.814Z,21.40
2022-08-28T23:32:22.121Z,21.40
2022-08-28T23:34:48.951Z,21.40
2022-08-28T23:37:15.714Z,21.30
2022-08-28T23:39:42.695Z,21.30
2022-08-28T23:42:10.376Z,21.20
2022-08-28T23:44:37.140Z,21.20
2022-08-28T23:47:04.291Z,21.20
2022-08-28T23:49:32.147Z,21.20
2022-08-28T23:51:58.905Z,21.10
2022-08-28T23:54:26.526Z,21.10
2022-08-28T23:56:54.004Z,21.10
2022-08-28T23:59:22.755Z,21.10
